SVPL1: Red River at Shreveport Site 2

                                SHEF ID:       SVPL1     Red River at Shreveport Site 2
STATION TYPE:

PRECIP STAGE RIV-FLOW VOLTAGE
in ft cfs volt
Ccp-Rev Ccp-Rev Ccp-Rev Ccp-Rev
(America/Chicago)
06/26 00:00 0.00 23.13 63040 12.83
06/26 01:00 0.00 23.24 63920 12.82
06/26 02:00 0.00 23.35 64800 12.81
06/26 03:00 0.00 23.48 65840 12.80
06/26 04:00 0.00 23.58 66640 12.79
06/26 05:00 0.00 23.59 66720 12.77
06/26 06:00 0.00 23.69 67520 12.79
06/26 07:00 0.00 23.83 68640 12.90
06/26 08:00 0.00 23.87 68960 13.16
06/26 09:00 0.00 23.89 69120 13.45
06/26 10:00 0.00 24.02 70160 13.05
06/26 11:00 0.00 24.07 70560 13.07
06/26 12:00 0.00 24.12 70960 13.06
06/26 13:00 0.00 24.28 72240 13.09
06/26 14:00 0.00 24.30 72400 13.07
06/26 15:00 0.00 24.36 72880 13.05
06/26 16:00 0.00 24.45 73600 13.09
06/26 17:00 0.00 24.61 74880 13.06
06/26 18:00 0.00 24.66 75280 13.01
06/26 19:00 0.00 24.76 76080 12.90
06/26 20:00 0.00 24.84 76720 12.88
06/26 21:00 0.00 24.89 77120 12.86
06/26 22:00 0.00 24.95 77600 12.84
06/26 23:00 0.00 24.89 77120 12.86
Data processed at Sat 27Jun2026 04:24 GMT

NOTICE: If you are parsing this page

Please convert to using our Data API. Starting early 2026 we will be migrating to: https://water.usace.army.mil with modern pages rendered in JavaScript. When this migration completes you will no longer be able to scrape this page! CWMSDataAPI (CDA)

Timeseries IDs (TSIDs)

TSIDs used from left to right in the data table
SHRE.Precip-Inc.Total.1Hour.1Hour.Ccp-Rev
SHRE.Stage.Inst.1Hour.0.Ccp-Rev
SHRE.Flow.Inst.1Hour.0.Ccp-Rev
SHRE.Volt-Battery.Inst.1Hour.0.Ccp-Rev

                            

All information presented herein is the property of the government of the United States of America and may be revised or deleted at any time without prior notice. Dissemination of this information without the expressed written consent of the Public Affairs Office, Tulsa District U.S. Army Corps of Engineers is strictly prohibited. These data are gathered electronically and, as presented, have NOT undergone any form of quality control. These data are NOT guaranteed to be valid or correct.